Portada
METAR-TAF:

METAR-TAF

Aeropuertos :

Souillac

Brive-la-Gaillarde, Francia

latitud: 45-02-28N, longitud: 001-28-59E, altitud: 311 m

Observación

El informe se hizo hace 22 horas y 45 minutos, a las 18:00 UTC
Viento 7 kt del noroeste
Temperatura 19°C
Humedad 49%
Presión 1023 hPa
Visibilidad 10 km o más
sin nubes por debajo de 1500 m y sin presencia de cumulonimbus.

METAR: LFSL 251800Z AUTO 31007KT CAVOK 19/08 Q1023 NOSIG

Hora: 18:45 (16:45 UTC)

Pronóstico

El informe se hizo hace 2 horas y 45 minutos, a las 14:00 UTC
Pronóstico válido del 26 a las 15 UTC al 26 a las 24 UTC
Viento 8 kt del noroeste
Visibilidad 10 km o más
sin nubes por debajo de 1500 m y sin presencia de cumulonimbus.

TAF: LFSL 261400Z 2615/2624 32008KT CAVOK

Observaciones y pronósticos meteorológicos de más de 4000 aeropuertos (mensajes METAR y TAF).

Los puntos amarillos y rojos representan las estaciones disponibles.

Ponga el ratón en el punto deseado para ver el nombre de la estación.

Haga clic para ver las observaciones y los pronósticos meteorológicos.

Para cambiar el mapa : haga clic en los botones verdes con una cruz de color negro para hacer un zoom, en el botón verde con un guión para alejar o en las flechas verdes para mapas adyacentes.


METAR-TAF: